sensor_id;sensor_type;location;lat;lon;timestamp;P1;durP1;ratioP1;P2;durP2;ratioP2
40849;SDS011;26571;41.610;25.380;2022-12-18T00:00:42;11.60;;;6.72;;
40849;SDS011;26571;41.610;25.380;2022-12-18T00:03:08;11.40;;;4.77;;
40849;SDS011;26571;41.610;25.380;2022-12-18T00:05:34;8.13;;;4.88;;
40849;SDS011;26571;41.610;25.380;2022-12-18T00:07:59;9.68;;;4.90;;
40849;SDS011;26571;41.610;25.380;2022-12-18T00:10:25;15.32;;;7.78;;
40849;SDS011;26571;41.610;25.380;2022-12-18T00:12:52;12.45;;;5.43;;
40849;SDS011;26571;41.610;25.380;2022-12-18T00:15:18;10.32;;;5.80;;
40849;SDS011;26571;41.610;25.380;2022-12-18T00:17:43;18.02;;;7.00;;
40849;SDS011;26571;41.610;25.380;2022-12-18T00:20:09;13.50;;;6.30;;
40849;SDS011;26571;41.610;25.380;2022-12-18T00:22:34;10.85;;;5.57;;
40849;SDS011;26571;41.610;25.380;2022-12-18T00:25:00;13.55;;;6.55;;
40849;SDS011;26571;41.610;25.380;2022-12-18T00:27:25;6.80;;;5.53;;
40849;SDS011;26571;41.610;25.380;2022-12-18T00:29:51;10.90;;;7.28;;
40849;SDS011;26571;41.610;25.380;2022-12-18T00:32:16;27.92;;;6.43;;
40849;SDS011;26571;41.610;25.380;2022-12-18T00:34:41;10.10;;;5.80;;
40849;SDS011;26571;41.610;25.380;2022-12-18T00:37:07;12.02;;;5.90;;
40849;SDS011;26571;41.610;25.380;2022-12-18T00:39:32;8.25;;;5.40;;
40849;SDS011;26571;41.610;25.380;2022-12-18T00:41:58;10.82;;;5.65;;
40849;SDS011;26571;41.610;25.380;2022-12-18T00:44:42;12.90;;;7.47;;
40849;SDS011;26571;41.610;25.380;2022-12-18T00:47:07;14.93;;;7.82;;
40849;SDS011;26571;41.610;25.380;2022-12-18T00:49:32;8.13;;;4.95;;
40849;SDS011;26571;41.610;25.380;2022-12-18T00:51:58;9.23;;;5.20;;
40849;SDS011;26571;41.610;25.380;2022-12-18T00:54:23;7.88;;;4.82;;
40849;SDS011;26571;41.610;25.380;2022-12-18T00:56:49;9.60;;;5.38;;
40849;SDS011;26571;41.610;25.380;2022-12-18T00:59:14;10.77;;;6.85;;
40849;SDS011;26571;41.610;25.380;2022-12-18T01:01:40;11.00;;;4.97;;
40849;SDS011;26571;41.610;25.380;2022-12-18T01:04:06;13.98;;;5.68;;
40849;SDS011;26571;41.610;25.380;2022-12-18T01:06:31;11.02;;;7.40;;
40849;SDS011;26571;41.610;25.380;2022-12-18T01:08:57;14.50;;;5.65;;
40849;SDS011;26571;41.610;25.380;2022-12-18T01:11:23;10.65;;;5.05;;
40849;SDS011;26571;41.610;25.380;2022-12-18T01:13:49;8.20;;;5.80;;
40849;SDS011;26571;41.610;25.380;2022-12-18T01:16:15;5.90;;;3.60;;
40849;SDS011;26571;41.610;25.380;2022-12-18T01:21:08;9.50;;;3.83;;
40849;SDS011;26571;41.610;25.380;2022-12-18T01:23:34;12.50;;;5.35;;
40849;SDS011;26571;41.610;25.380;2022-12-18T01:26:09;11.65;;;4.93;;
40849;SDS011;26571;41.610;25.380;2022-12-18T01:28:37;6.10;;;4.78;;
40849;SDS011;26571;41.610;25.380;2022-12-18T01:31:36;10.40;;;6.25;;
40849;SDS011;26571;41.610;25.380;2022-12-18T01:33:56;8.00;;;5.80;;
40849;SDS011;26571;41.610;25.380;2022-12-18T01:36:23;10.88;;;5.72;;
40849;SDS011;26571;41.610;25.380;2022-12-18T01:38:51;9.43;;;6.30;;
40849;SDS011;26571;41.610;25.380;2022-12-18T01:41:18;9.98;;;6.65;;
40849;SDS011;26571;41.610;25.380;2022-12-18T01:43:48;11.00;;;7.10;;
40849;SDS011;26571;41.610;25.380;2022-12-18T01:46:20;10.00;;;7.95;;
40849;SDS011;26571;41.610;25.380;2022-12-18T01:48:50;10.75;;;7.55;;
40849;SDS011;26571;41.610;25.380;2022-12-18T01:51:18;10.10;;;7.03;;
40849;SDS011;26571;41.610;25.380;2022-12-18T01:53:44;12.63;;;7.95;;
40849;SDS011;26571;41.610;25.380;2022-12-18T01:56:12;14.55;;;9.27;;
40849;SDS011;26571;41.610;25.380;2022-12-18T02:01:30;10.25;;;7.65;;
40849;SDS011;26571;41.610;25.380;2022-12-18T02:03:56;9.88;;;8.18;;
40849;SDS011;26571;41.610;25.380;2022-12-18T02:06:41;16.15;;;8.50;;
40849;SDS011;26571;41.610;25.380;2022-12-18T02:09:10;9.52;;;8.25;;
40849;SDS011;26571;41.610;25.380;2022-12-18T02:17:22;11.60;;;9.10;;
40849;SDS011;26571;41.610;25.380;2022-12-18T02:20:02;10.57;;;8.52;;
40849;SDS011;26571;41.610;25.380;2022-12-18T02:28:06;8.88;;;7.75;;
40849;SDS011;26571;41.610;25.380;2022-12-18T02:30:36;12.88;;;8.52;;
40849;SDS011;26571;41.610;25.380;2022-12-18T02:33:05;10.90;;;8.55;;
40849;SDS011;26571;41.610;25.380;2022-12-18T02:35:33;12.02;;;8.15;;
40849;SDS011;26571;41.610;25.380;2022-12-18T02:38:01;14.32;;;9.05;;
40849;SDS011;26571;41.610;25.380;2022-12-18T02:40:29;10.38;;;7.72;;
40849;SDS011;26571;41.610;25.380;2022-12-18T02:42:55;12.40;;;8.02;;
40849;SDS011;26571;41.610;25.380;2022-12-18T02:45:26;13.20;;;8.48;;
40849;SDS011;26571;41.610;25.380;2022-12-18T02:47:52;11.25;;;7.22;;
40849;SDS011;26571;41.610;25.380;2022-12-18T02:50:29;10.77;;;8.02;;
40849;SDS011;26571;41.610;25.380;2022-12-18T02:58:09;9.02;;;6.97;;
40849;SDS011;26571;41.610;25.380;2022-12-18T03:00:43;9.85;;;7.25;;
40849;SDS011;26571;41.610;25.380;2022-12-18T03:03:19;7.60;;;6.85;;
40849;SDS011;26571;41.610;25.380;2022-12-18T03:05:53;8.95;;;7.88;;
40849;SDS011;26571;41.610;25.380;2022-12-18T03:08:23;9.40;;;7.05;;
40849;SDS011;26571;41.610;25.380;2022-12-18T03:10:57;10.45;;;7.88;;
40849;SDS011;26571;41.610;25.380;2022-12-18T03:13:30;15.52;;;8.50;;
40849;SDS011;26571;41.610;25.380;2022-12-18T03:16:03;9.15;;;7.68;;
40849;SDS011;26571;41.610;25.380;2022-12-18T03:23:29;9.82;;;7.70;;
40849;SDS011;26571;41.610;25.380;2022-12-18T03:26:01;8.50;;;7.55;;
40849;SDS011;26571;41.610;25.380;2022-12-18T03:28:39;8.55;;;7.47;;
40849;SDS011;26571;41.610;25.380;2022-12-18T03:31:10;8.90;;;7.07;;
40849;SDS011;26571;41.610;25.380;2022-12-18T03:33:39;8.43;;;7.38;;
40849;SDS011;26571;41.610;25.380;2022-12-18T03:36:12;8.90;;;8.05;;
40849;SDS011;26571;41.610;25.380;2022-12-18T03:38:37;9.77;;;7.78;;
40849;SDS011;26571;41.610;25.380;2022-12-18T03:41:10;8.40;;;7.45;;
40849;SDS011;26571;41.610;25.380;2022-12-18T03:43:48;9.50;;;7.20;;
40849;SDS011;26571;41.610;25.380;2022-12-18T03:46:29;7.30;;;6.40;;
40849;SDS011;26571;41.610;25.380;2022-12-18T03:52:29;8.68;;;7.68;;
40849;SDS011;26571;41.610;25.380;2022-12-18T03:55:02;11.30;;;7.75;;
40849;SDS011;26571;41.610;25.380;2022-12-18T03:57:30;8.63;;;7.70;;
40849;SDS011;26571;41.610;25.380;2022-12-18T04:00:03;8.60;;;7.57;;
40849;SDS011;26571;41.610;25.380;2022-12-18T04:02:34;10.07;;;8.40;;
40849;SDS011;26571;41.610;25.380;2022-12-18T04:05:03;10.90;;;9.02;;
40849;SDS011;26571;41.610;25.380;2022-12-18T04:07:32;13.40;;;8.73;;
40849;SDS011;26571;41.610;25.380;2022-12-18T04:09:58;11.77;;;7.90;;
40849;SDS011;26571;41.610;25.380;2022-12-18T04:12:26;11.43;;;7.88;;
40849;SDS011;26571;41.610;25.380;2022-12-18T04:14:54;11.57;;;7.65;;
40849;SDS011;26571;41.610;25.380;2022-12-18T04:17:20;7.82;;;7.05;;
40849;SDS011;26571;41.610;25.380;2022-12-18T04:19:46;6.68;;;6.03;;
40849;SDS011;26571;41.610;25.380;2022-12-18T04:22:11;8.40;;;7.10;;
40849;SDS011;26571;41.610;25.380;2022-12-18T04:24:37;7.55;;;6.68;;
40849;SDS011;26571;41.610;25.380;2022-12-18T04:27:03;9.07;;;7.35;;
40849;SDS011;26571;41.610;25.380;2022-12-18T04:29:29;10.13;;;6.78;;
40849;SDS011;26571;41.610;25.380;2022-12-18T04:31:54;6.90;;;6.20;;
40849;SDS011;26571;41.610;25.380;2022-12-18T04:34:20;10.00;;;7.70;;
40849;SDS011;26571;41.610;25.380;2022-12-18T04:36:46;8.18;;;6.22;;
40849;SDS011;26571;41.610;25.380;2022-12-18T04:39:12;7.25;;;6.57;;
40849;SDS011;26571;41.610;25.380;2022-12-18T04:41:37;7.18;;;6.40;;
40849;SDS011;26571;41.610;25.380;2022-12-18T04:44:03;7.75;;;7.05;;
40849;SDS011;26571;41.610;25.380;2022-12-18T04:46:29;8.68;;;7.43;;
40849;SDS011;26571;41.610;25.380;2022-12-18T04:48:54;8.63;;;7.45;;
40849;SDS011;26571;41.610;25.380;2022-12-18T04:51:20;9.63;;;7.15;;
40849;SDS011;26571;41.610;25.380;2022-12-18T04:53:45;10.50;;;6.93;;
40849;SDS011;26571;41.610;25.380;2022-12-18T04:56:12;7.68;;;6.93;;
40849;SDS011;26571;41.610;25.380;2022-12-18T04:58:39;9.73;;;7.75;;
40849;SDS011;26571;41.610;25.380;2022-12-18T05:01:06;9.27;;;7.93;;
40849;SDS011;26571;41.610;25.380;2022-12-18T05:03:32;9.02;;;8.10;;
40849;SDS011;26571;41.610;25.380;2022-12-18T05:05:58;10.52;;;7.85;;
40849;SDS011;26571;41.610;25.380;2022-12-18T05:08:24;9.50;;;7.55;;
40849;SDS011;26571;41.610;25.380;2022-12-18T05:10:57;10.15;;;9.15;;
40849;SDS011;26571;41.610;25.380;2022-12-18T05:13:33;8.80;;;7.97;;
40849;SDS011;26571;41.610;25.380;2022-12-18T05:15:59;9.65;;;7.72;;
40849;SDS011;26571;41.610;25.380;2022-12-18T05:18:25;9.38;;;8.32;;
40849;SDS011;26571;41.610;25.380;2022-12-18T05:20:51;9.93;;;8.93;;
40849;SDS011;26571;41.610;25.380;2022-12-18T05:23:18;10.45;;;8.00;;
40849;SDS011;26571;41.610;25.380;2022-12-18T05:25:46;8.30;;;7.55;;
40849;SDS011;26571;41.610;25.380;2022-12-18T05:28:18;8.68;;;7.55;;
40849;SDS011;26571;41.610;25.380;2022-12-18T05:30:54;8.25;;;7.45;;
40849;SDS011;26571;41.610;25.380;2022-12-18T05:33:21;9.90;;;8.27;;
40849;SDS011;26571;41.610;25.380;2022-12-18T05:35:55;9.80;;;8.20;;
40849;SDS011;26571;41.610;25.380;2022-12-18T05:38:25;8.98;;;7.78;;
40849;SDS011;26571;41.610;25.380;2022-12-18T05:40:52;11.77;;;9.48;;
40849;SDS011;26571;41.610;25.380;2022-12-18T05:43:18;13.48;;;9.82;;
40849;SDS011;26571;41.610;25.380;2022-12-18T05:45:48;13.55;;;11.23;;
40849;SDS011;26571;41.610;25.380;2022-12-18T05:48:14;17.25;;;10.02;;
40849;SDS011;26571;41.610;25.380;2022-12-18T05:50:40;14.15;;;12.25;;
40849;SDS011;26571;41.610;25.380;2022-12-18T05:53:07;11.63;;;10.50;;
40849;SDS011;26571;41.610;25.380;2022-12-18T05:55:36;12.55;;;11.27;;
40849;SDS011;26571;41.610;25.380;2022-12-18T05:58:04;12.95;;;11.60;;
40849;SDS011;26571;41.610;25.380;2022-12-18T06:00:31;15.82;;;11.75;;
40849;SDS011;26571;41.610;25.380;2022-12-18T06:02:58;13.15;;;11.27;;
40849;SDS011;26571;41.610;25.380;2022-12-18T06:05:24;21.88;;;15.95;;
40849;SDS011;26571;41.610;25.380;2022-12-18T06:07:50;18.27;;;14.30;;
40849;SDS011;26571;41.610;25.380;2022-12-18T06:10:16;14.70;;;13.00;;
40849;SDS011;26571;41.610;25.380;2022-12-18T06:12:41;11.43;;;9.90;;
40849;SDS011;26571;41.610;25.380;2022-12-18T06:15:07;33.78;;;21.95;;
40849;SDS011;26571;41.610;25.380;2022-12-18T06:17:33;79.40;;;44.33;;
40849;SDS011;26571;41.610;25.380;2022-12-18T06:19:59;52.92;;;29.88;;
40849;SDS011;26571;41.610;25.380;2022-12-18T06:22:25;62.97;;;38.28;;
40849;SDS011;26571;41.610;25.380;2022-12-18T06:24:51;57.75;;;33.38;;
40849;SDS011;26571;41.610;25.380;2022-12-18T06:27:16;56.75;;;33.70;;
40849;SDS011;26571;41.610;25.380;2022-12-18T06:29:42;35.75;;;23.95;;
40849;SDS011;26571;41.610;25.380;2022-12-18T06:32:07;22.98;;;16.70;;
40849;SDS011;26571;41.610;25.380;2022-12-18T06:34:33;24.85;;;17.08;;
40849;SDS011;26571;41.610;25.380;2022-12-18T06:36:59;26.17;;;19.33;;
40849;SDS011;26571;41.610;25.380;2022-12-18T06:39:24;31.40;;;17.40;;
40849;SDS011;26571;41.610;25.380;2022-12-18T06:41:52;17.58;;;12.65;;
40849;SDS011;26571;41.610;25.380;2022-12-18T06:44:17;17.42;;;13.27;;
40849;SDS011;26571;41.610;25.380;2022-12-18T06:46:43;19.30;;;15.20;;
40849;SDS011;26571;41.610;25.380;2022-12-18T06:49:08;14.93;;;10.00;;
40849;SDS011;26571;41.610;25.380;2022-12-18T06:51:34;22.25;;;16.02;;
40849;SDS011;26571;41.610;25.380;2022-12-18T06:54:00;17.38;;;12.90;;
40849;SDS011;26571;41.610;25.380;2022-12-18T06:56:26;8.98;;;6.85;;
40849;SDS011;26571;41.610;25.380;2022-12-18T06:58:51;14.80;;;9.57;;
40849;SDS011;26571;41.610;25.380;2022-12-18T07:01:16;14.20;;;9.50;;
40849;SDS011;26571;41.610;25.380;2022-12-18T07:03:42;10.85;;;9.40;;
40849;SDS011;26571;41.610;25.380;2022-12-18T07:06:14;17.52;;;13.18;;
40849;SDS011;26571;41.610;25.380;2022-12-18T07:08:41;33.00;;;19.98;;
40849;SDS011;26571;41.610;25.380;2022-12-18T07:11:06;29.48;;;21.63;;
40849;SDS011;26571;41.610;25.380;2022-12-18T07:13:32;33.60;;;23.95;;
40849;SDS011;26571;41.610;25.380;2022-12-18T07:16:04;23.17;;;18.50;;
40849;SDS011;26571;41.610;25.380;2022-12-18T07:18:30;33.83;;;26.75;;
40849;SDS011;26571;41.610;25.380;2022-12-18T07:20:55;24.75;;;19.77;;
40849;SDS011;26571;41.610;25.380;2022-12-18T07:23:21;22.75;;;17.98;;
40849;SDS011;26571;41.610;25.380;2022-12-18T07:25:46;41.03;;;28.98;;
40849;SDS011;26571;41.610;25.380;2022-12-18T07:28:11;20.23;;;14.45;;
40849;SDS011;26571;41.610;25.380;2022-12-18T07:30:37;18.92;;;15.00;;
40849;SDS011;26571;41.610;25.380;2022-12-18T07:33:03;27.83;;;21.05;;
40849;SDS011;26571;41.610;25.380;2022-12-18T07:35:28;32.97;;;23.65;;
40849;SDS011;26571;41.610;25.380;2022-12-18T07:37:54;18.60;;;16.00;;
40849;SDS011;26571;41.610;25.380;2022-12-18T07:40:19;14.18;;;12.07;;
40849;SDS011;26571;41.610;25.380;2022-12-18T07:42:45;15.60;;;11.95;;
40849;SDS011;26571;41.610;25.380;2022-12-18T07:45:10;14.35;;;12.63;;
40849;SDS011;26571;41.610;25.380;2022-12-18T07:47:37;26.05;;;19.25;;
40849;SDS011;26571;41.610;25.380;2022-12-18T07:50:03;20.13;;;15.40;;
40849;SDS011;26571;41.610;25.380;2022-12-18T07:52:29;20.27;;;12.38;;
40849;SDS011;26571;41.610;25.380;2022-12-18T07:54:55;14.50;;;13.02;;
40849;SDS011;26571;41.610;25.380;2022-12-18T07:57:20;26.00;;;18.20;;
40849;SDS011;26571;41.610;25.380;2022-12-18T07:59:46;25.05;;;18.85;;
40849;SDS011;26571;41.610;25.380;2022-12-18T08:02:11;24.00;;;17.55;;
40849;SDS011;26571;41.610;25.380;2022-12-18T08:04:36;11.20;;;10.00;;
40849;SDS011;26571;41.610;25.380;2022-12-18T08:07:02;22.73;;;17.73;;
40849;SDS011;26571;41.610;25.380;2022-12-18T08:09:28;16.88;;;13.02;;
40849;SDS011;26571;41.610;25.380;2022-12-18T08:11:53;19.10;;;15.60;;
40849;SDS011;26571;41.610;25.380;2022-12-18T08:14:19;19.52;;;16.05;;
40849;SDS011;26571;41.610;25.380;2022-12-18T08:16:44;16.50;;;13.45;;
40849;SDS011;26571;41.610;25.380;2022-12-18T08:19:10;14.77;;;11.05;;
40849;SDS011;26571;41.610;25.380;2022-12-18T08:21:35;20.60;;;14.93;;
40849;SDS011;26571;41.610;25.380;2022-12-18T08:24:00;15.90;;;13.40;;
40849;SDS011;26571;41.610;25.380;2022-12-18T08:26:27;17.65;;;14.07;;
40849;SDS011;26571;41.610;25.380;2022-12-18T08:28:54;17.65;;;14.60;;
40849;SDS011;26571;41.610;25.380;2022-12-18T08:31:21;15.48;;;13.63;;
40849;SDS011;26571;41.610;25.380;2022-12-18T08:33:50;17.30;;;13.90;;
40849;SDS011;26571;41.610;25.380;2022-12-18T08:36:17;20.00;;;15.70;;
40849;SDS011;26571;41.610;25.380;2022-12-18T08:38:43;17.00;;;14.80;;
40849;SDS011;26571;41.610;25.380;2022-12-18T08:41:09;17.35;;;15.50;;
40849;SDS011;26571;41.610;25.380;2022-12-18T08:43:36;19.40;;;15.50;;
40849;SDS011;26571;41.610;25.380;2022-12-18T08:46:21;18.27;;;14.77;;
40849;SDS011;26571;41.610;25.380;2022-12-18T08:48:50;18.05;;;15.90;;
40849;SDS011;26571;41.610;25.380;2022-12-18T08:51:16;21.77;;;17.85;;
40849;SDS011;26571;41.610;25.380;2022-12-18T08:53:42;21.33;;;16.25;;
40849;SDS011;26571;41.610;25.380;2022-12-18T08:56:09;16.73;;;14.05;;
40849;SDS011;26571;41.610;25.380;2022-12-18T08:58:35;14.27;;;12.43;;
40849;SDS011;26571;41.610;25.380;2022-12-18T09:01:01;13.95;;;12.27;;
40849;SDS011;26571;41.610;25.380;2022-12-18T09:03:30;14.85;;;12.98;;
40849;SDS011;26571;41.610;25.380;2022-12-18T09:05:56;22.95;;;15.55;;
40849;SDS011;26571;41.610;25.380;2022-12-18T09:08:22;26.98;;;21.73;;
40849;SDS011;26571;41.610;25.380;2022-12-18T09:10:48;22.50;;;18.83;;
40849;SDS011;26571;41.610;25.380;2022-12-18T09:13:14;15.88;;;12.60;;
40849;SDS011;26571;41.610;25.380;2022-12-18T09:18:08;16.00;;;12.88;;
40849;SDS011;26571;41.610;25.380;2022-12-18T09:20:35;14.07;;;11.80;;
40849;SDS011;26571;41.610;25.380;2022-12-18T09:23:01;25.55;;;18.70;;
40849;SDS011;26571;41.610;25.380;2022-12-18T09:25:28;19.20;;;14.32;;
40849;SDS011;26571;41.610;25.380;2022-12-18T09:27:58;15.40;;;12.45;;
40849;SDS011;26571;41.610;25.380;2022-12-18T09:30:39;13.88;;;11.07;;
40849;SDS011;26571;41.610;25.380;2022-12-18T09:33:06;25.92;;;14.30;;
40849;SDS011;26571;41.610;25.380;2022-12-18T09:35:32;13.45;;;10.02;;
40849;SDS011;26571;41.610;25.380;2022-12-18T09:37:57;11.40;;;9.57;;
40849;SDS011;26571;41.610;25.380;2022-12-18T09:40:23;17.02;;;13.60;;
40849;SDS011;26571;41.610;25.380;2022-12-18T09:42:52;14.75;;;10.43;;
40849;SDS011;26571;41.610;25.380;2022-12-18T09:45:22;17.27;;;11.48;;
40849;SDS011;26571;41.610;25.380;2022-12-18T09:47:49;14.15;;;10.98;;
40849;SDS011;26571;41.610;25.380;2022-12-18T09:50:34;19.23;;;12.90;;
40849;SDS011;26571;41.610;25.380;2022-12-18T09:53:04;23.60;;;10.23;;
40849;SDS011;26571;41.610;25.380;2022-12-18T09:55:38;13.02;;;11.43;;
40849;SDS011;26571;41.610;25.380;2022-12-18T09:58:11;11.55;;;9.25;;
40849;SDS011;26571;41.610;25.380;2022-12-18T10:00:41;9.68;;;7.90;;
40849;SDS011;26571;41.610;25.380;2022-12-18T10:03:10;8.65;;;7.72;;
40849;SDS011;26571;41.610;25.380;2022-12-18T10:05:40;15.73;;;11.73;;
40849;SDS011;26571;41.610;25.380;2022-12-18T10:10:51;11.50;;;9.05;;
40849;SDS011;26571;41.610;25.380;2022-12-18T10:21:21;10.90;;;8.65;;
40849;SDS011;26571;41.610;25.380;2022-12-18T10:23:57;11.00;;;8.18;;
40849;SDS011;26571;41.610;25.380;2022-12-18T10:26:46;9.68;;;7.43;;
40849;SDS011;26571;41.610;25.380;2022-12-18T10:29:13;7.75;;;6.93;;
40849;SDS011;26571;41.610;25.380;2022-12-18T10:31:40;8.10;;;7.30;;
40849;SDS011;26571;41.610;25.380;2022-12-18T10:34:12;7.15;;;6.45;;
40849;SDS011;26571;41.610;25.380;2022-12-18T10:36:40;6.97;;;4.72;;
40849;SDS011;26571;41.610;25.380;2022-12-18T10:41:47;6.95;;;6.25;;
40849;SDS011;26571;41.610;25.380;2022-12-18T10:44:21;7.65;;;6.70;;
40849;SDS011;26571;41.610;25.380;2022-12-18T10:46:53;8.93;;;7.03;;
40849;SDS011;26571;41.610;25.380;2022-12-18T10:49:26;8.63;;;7.82;;
40849;SDS011;26571;41.610;25.380;2022-12-18T10:52:37;7.78;;;6.97;;
40849;SDS011;26571;41.610;25.380;2022-12-18T10:54:47;6.97;;;6.28;;
40849;SDS011;26571;41.610;25.380;2022-12-18T10:57:27;11.85;;;9.75;;
40849;SDS011;26571;41.610;25.380;2022-12-18T10:59:56;8.70;;;6.57;;
40849;SDS011;26571;41.610;25.380;2022-12-18T11:04:53;7.20;;;6.50;;
40849;SDS011;26571;41.610;25.380;2022-12-18T11:07:18;25.55;;;19.25;;
40849;SDS011;26571;41.610;25.380;2022-12-18T11:09:43;31.05;;;24.10;;
40849;SDS011;26571;41.610;25.380;2022-12-18T11:12:28;10.70;;;9.70;;
40849;SDS011;26571;41.610;25.380;2022-12-18T11:14:54;7.73;;;7.03;;
40849;SDS011;26571;41.610;25.380;2022-12-18T11:17:28;13.35;;;10.68;;
40849;SDS011;26571;41.610;25.380;2022-12-18T11:20:00;7.13;;;6.47;;
40849;SDS011;26571;41.610;25.380;2022-12-18T11:22:29;8.85;;;6.32;;
40849;SDS011;26571;41.610;25.380;2022-12-18T11:27:37;6.88;;;5.15;;
40849;SDS011;26571;41.610;25.380;2022-12-18T11:30:09;6.70;;;5.78;;
40849;SDS011;26571;41.610;25.380;2022-12-18T11:38:23;8.88;;;6.07;;
40849;SDS011;26571;41.610;25.380;2022-12-18T11:43:54;7.95;;;6.88;;
40849;SDS011;26571;41.610;25.380;2022-12-18T11:51:33;6.85;;;5.90;;
40849;SDS011;26571;41.610;25.380;2022-12-18T11:54:08;8.00;;;5.63;;
40849;SDS011;26571;41.610;25.380;2022-12-18T12:26:06;8.07;;;7.28;;
40849;SDS011;26571;41.610;25.380;2022-12-18T12:28:41;7.07;;;5.80;;
40849;SDS011;26571;41.610;25.380;2022-12-18T12:39:23;7.28;;;5.90;;
40849;SDS011;26571;41.610;25.380;2022-12-18T12:41:55;8.45;;;7.65;;
40849;SDS011;26571;41.610;25.380;2022-12-18T12:44:51;10.90;;;8.07;;
40849;SDS011;26571;41.610;25.380;2022-12-18T12:47:21;12.05;;;7.88;;
40849;SDS011;26571;41.610;25.380;2022-12-18T12:49:51;9.32;;;8.32;;
40849;SDS011;26571;41.610;25.380;2022-12-18T12:52:23;8.35;;;7.20;;
40849;SDS011;26571;41.610;25.380;2022-12-18T12:55:01;7.50;;;6.82;;
40849;SDS011;26571;41.610;25.380;2022-12-18T13:00:26;11.18;;;9.13;;
40849;SDS011;26571;41.610;25.380;2022-12-18T13:06:00;18.83;;;14.68;;
40849;SDS011;26571;41.610;25.380;2022-12-18T13:08:34;8.85;;;7.97;;
40849;SDS011;26571;41.610;25.380;2022-12-18T13:14:31;11.32;;;8.55;;
40849;SDS011;26571;41.610;25.380;2022-12-18T13:22:40;9.98;;;8.27;;
40849;SDS011;26571;41.610;25.380;2022-12-18T13:25:28;10.13;;;9.23;;
40849;SDS011;26571;41.610;25.380;2022-12-18T13:41:03;15.05;;;11.80;;
40849;SDS011;26571;41.610;25.380;2022-12-18T13:48:32;12.05;;;9.52;;
40849;SDS011;26571;41.610;25.380;2022-12-18T13:51:05;11.40;;;10.18;;
40849;SDS011;26571;41.610;25.380;2022-12-18T13:53:36;9.52;;;8.63;;
40849;SDS011;26571;41.610;25.380;2022-12-18T13:56:07;15.90;;;11.38;;
40849;SDS011;26571;41.610;25.380;2022-12-18T13:58:32;13.52;;;12.05;;
40849;SDS011;26571;41.610;25.380;2022-12-18T14:00:58;12.40;;;10.63;;
40849;SDS011;26571;41.610;25.380;2022-12-18T14:03:25;13.82;;;12.38;;
40849;SDS011;26571;41.610;25.380;2022-12-18T14:05:56;10.65;;;9.55;;
40849;SDS011;26571;41.610;25.380;2022-12-18T14:08:34;9.80;;;7.78;;
40849;SDS011;26571;41.610;25.380;2022-12-18T14:11:17;5.95;;;5.32;;
40849;SDS011;26571;41.610;25.380;2022-12-18T14:13:45;6.10;;;5.30;;
40849;SDS011;26571;41.610;25.380;2022-12-18T14:16:12;5.63;;;5.00;;
40849;SDS011;26571;41.610;25.380;2022-12-18T14:18:53;5.70;;;4.72;;
40849;SDS011;26571;41.610;25.380;2022-12-18T14:21:30;5.05;;;4.65;;
40849;SDS011;26571;41.610;25.380;2022-12-18T14:24:41;4.95;;;4.43;;
40849;SDS011;26571;41.610;25.380;2022-12-18T14:26:48;5.72;;;5.22;;
40849;SDS011;26571;41.610;25.380;2022-12-18T14:29:27;6.20;;;5.70;;
40849;SDS011;26571;41.610;25.380;2022-12-18T14:32:03;12.05;;;9.13;;
40849;SDS011;26571;41.610;25.380;2022-12-18T14:34:41;13.55;;;10.35;;
40849;SDS011;26571;41.610;25.380;2022-12-18T14:37:11;14.15;;;10.32;;
40849;SDS011;26571;41.610;25.380;2022-12-18T14:39:37;6.60;;;6.10;;
40849;SDS011;26571;41.610;25.380;2022-12-18T14:42:03;6.55;;;5.85;;
40849;SDS011;26571;41.610;25.380;2022-12-18T14:44:29;7.88;;;7.18;;
40849;SDS011;26571;41.610;25.380;2022-12-18T14:46:54;4.97;;;4.57;;
40849;SDS011;26571;41.610;25.380;2022-12-18T14:49:30;7.57;;;6.88;;
40849;SDS011;26571;41.610;25.380;2022-12-18T14:51:58;6.95;;;6.32;;
40849;SDS011;26571;41.610;25.380;2022-12-18T14:54:26;7.22;;;6.53;;
40849;SDS011;26571;41.610;25.380;2022-12-18T14:57:00;7.50;;;6.80;;
40849;SDS011;26571;41.610;25.380;2022-12-18T14:59:28;8.13;;;7.35;;
40849;SDS011;26571;41.610;25.380;2022-12-18T15:09:32;6.25;;;5.65;;
40849;SDS011;26571;41.610;25.380;2022-12-18T15:11:58;5.50;;;5.10;;
40849;SDS011;26571;41.610;25.380;2022-12-18T15:17:21;7.40;;;6.20;;
40849;SDS011;26571;41.610;25.380;2022-12-18T15:19:49;6.97;;;6.35;;
40849;SDS011;26571;41.610;25.380;2022-12-18T15:24:45;13.10;;;10.02;;
40849;SDS011;26571;41.610;25.380;2022-12-18T15:30:16;11.15;;;9.98;;
40849;SDS011;26571;41.610;25.380;2022-12-18T15:32:42;10.70;;;9.63;;
40849;SDS011;26571;41.610;25.380;2022-12-18T15:37:36;14.98;;;13.48;;
40849;SDS011;26571;41.610;25.380;2022-12-18T15:40:04;17.13;;;13.48;;
40849;SDS011;26571;41.610;25.380;2022-12-18T15:42:30;11.18;;;10.10;;
40849;SDS011;26571;41.610;25.380;2022-12-18T15:45:13;10.20;;;7.78;;
40849;SDS011;26571;41.610;25.380;2022-12-18T15:47:39;9.73;;;7.97;;
40849;SDS011;26571;41.610;25.380;2022-12-18T15:50:06;8.95;;;8.13;;
40849;SDS011;26571;41.610;25.380;2022-12-18T15:52:34;5.50;;;5.10;;
40849;SDS011;26571;41.610;25.380;2022-12-18T15:55:05;4.68;;;4.32;;
40849;SDS011;26571;41.610;25.380;2022-12-18T15:57:57;3.45;;;3.15;;
40849;SDS011;26571;41.610;25.380;2022-12-18T16:00:23;2.45;;;2.35;;
40849;SDS011;26571;41.610;25.380;2022-12-18T16:02:48;1.33;;;1.30;;
40849;SDS011;26571;41.610;25.380;2022-12-18T16:05:14;3.72;;;2.45;;
40849;SDS011;26571;41.610;25.380;2022-12-18T16:07:42;2.72;;;2.63;;
40849;SDS011;26571;41.610;25.380;2022-12-18T16:10:07;3.00;;;2.85;;
40849;SDS011;26571;41.610;25.380;2022-12-18T16:12:33;3.90;;;3.42;;
40849;SDS011;26571;41.610;25.380;2022-12-18T16:14:59;2.85;;;2.65;;
40849;SDS011;26571;41.610;25.380;2022-12-18T16:17:24;2.58;;;2.38;;
40849;SDS011;26571;41.610;25.380;2022-12-18T16:19:50;3.30;;;3.10;;
40849;SDS011;26571;41.610;25.380;2022-12-18T16:22:18;3.33;;;2.83;;
40849;SDS011;26571;41.610;25.380;2022-12-18T16:24:48;4.75;;;4.35;;
40849;SDS011;26571;41.610;25.380;2022-12-18T16:27:15;3.53;;;3.17;;
40849;SDS011;26571;41.610;25.380;2022-12-18T16:29:41;3.90;;;3.58;;
40849;SDS011;26571;41.610;25.380;2022-12-18T16:32:08;6.80;;;4.47;;
40849;SDS011;26571;41.610;25.380;2022-12-18T16:34:38;6.05;;;5.43;;
40849;SDS011;26571;41.610;25.380;2022-12-18T16:37:04;8.60;;;6.80;;
40849;SDS011;26571;41.610;25.380;2022-12-18T16:39:31;2.95;;;2.75;;
40849;SDS011;26571;41.610;25.380;2022-12-18T16:41:59;3.75;;;3.20;;
40849;SDS011;26571;41.610;25.380;2022-12-18T16:44:24;4.32;;;3.92;;
40849;SDS011;26571;41.610;25.380;2022-12-18T16:46:50;6.45;;;5.68;;
40849;SDS011;26571;41.610;25.380;2022-12-18T16:49:15;7.45;;;5.47;;
40849;SDS011;26571;41.610;25.380;2022-12-18T16:51:42;3.40;;;3.00;;
40849;SDS011;26571;41.610;25.380;2022-12-18T16:54:08;3.88;;;2.85;;
40849;SDS011;26571;41.610;25.380;2022-12-18T16:56:33;3.33;;;3.00;;
40849;SDS011;26571;41.610;25.380;2022-12-18T16:58:59;4.35;;;3.65;;
40849;SDS011;26571;41.610;25.380;2022-12-18T17:03:55;5.43;;;3.95;;
40849;SDS011;26571;41.610;25.380;2022-12-18T17:06:22;5.10;;;4.32;;
40849;SDS011;26571;41.610;25.380;2022-12-18T17:08:56;3.22;;;2.88;;